Time;durP1;ratioP1;P1;durP2;ratioP2;P2;SDS_P1;SDS_P2;PMS_P1;PMS_P2;Temp;Humidity;BMP_temperature;BMP_pressure;BME280_temperature;BME280_humidity;BME280_pressure;Samples;Min_cycle;Max_cycle;Signal;HPM_P1;HPM_P2
2022/06/13 00:00:04;;;;;;;1.60;0.80;;;;;23.30;100938.00;;;;2078929;28;20989;-57
2022/06/13 00:01:09;;;;;;;1.65;1.05;;;;;23.30;100935.00;;;;2078232;28;20275;-57
2022/06/13 00:02:10;;;;;;;1.55;0.90;;;;;23.40;100943.00;;;;2078492;28;20306;-58
2022/06/13 00:03:10;;;;;;;1.30;0.93;;;;;23.30;100933.00;;;;2077806;28;20212;-57
2022/06/13 00:04:11;;;;;;;1.40;0.90;;;;;23.30;100928.00;;;;2069753;28;20276;-57
2022/06/13 00:05:11;;;;;;;1.30;1.00;;;;;23.30;100932.00;;;;2077918;28;20317;-56
2022/06/13 00:06:12;;;;;;;1.00;0.80;;;;;23.30;100928.00;;;;2077299;28;20248;-56
2022/06/13 00:07:12;;;;;;;1.30;0.93;;;;;23.30;100915.00;;;;2077911;28;20205;-58
2022/06/13 00:08:12;;;;;;;1.20;0.90;;;;;23.30;100926.00;;;;2077942;28;20566;-57
2022/06/13 00:09:13;;;;;;;1.30;0.90;;;;;23.30;100923.00;;;;2078063;28;20214;-58
2022/06/13 00:10:13;;;;;;;1.70;1.10;;;;;23.30;100920.00;;;;2076463;28;20216;-58
2022/06/13 00:11:16;;;;;;;1.37;0.80;;;;;23.30;100922.00;;;;2060985;28;20215;-58
2022/06/13 00:12:16;;;;;;;1.50;1.13;;;;;23.30;100920.00;;;;2054069;28;20215;-57
2022/06/13 00:13:16;;;;;;;1.50;1.20;;;;;23.30;100919.00;;;;2069647;28;20222;-57
2022/06/13 00:14:17;;;;;;;1.43;1.00;;;;;23.30;100932.00;;;;2070498;28;20210;-58
2022/06/13 00:15:17;;;;;;;1.43;1.00;;;;;23.30;100921.00;;;;2070143;28;20222;-57
2022/06/13 00:16:17;;;;;;;1.00;0.90;;;;;23.30;100911.00;;;;2069981;28;20221;-57
2022/06/13 00:17:18;;;;;;;1.57;1.00;;;;;23.30;100913.00;;;;2070371;28;20241;-57
2022/06/13 00:18:18;;;;;;;2.20;1.20;;;;;23.30;100908.00;;;;2070590;28;20221;-57
2022/06/13 00:19:18;;;;;;;1.87;1.20;;;;;23.30;100918.00;;;;2076071;28;20714;-57
2022/06/13 00:20:19;;;;;;;1.97;1.10;;;;;23.30;100917.00;;;;2077873;28;20217;-58
2022/06/13 00:21:22;;;;;;;1.67;1.10;;;;;23.30;100906.00;;;;2077848;28;20228;-58
2022/06/13 00:22:23;;;;;;;1.90;1.30;;;;;23.40;100917.00;;;;2078141;28;20209;-57
2022/06/13 00:23:23;;;;;;;1.53;1.03;;;;;23.40;100911.00;;;;2078294;28;20209;-57
2022/06/13 00:24:23;;;;;;;1.27;0.90;;;;;23.30;100907.00;;;;2077899;28;20248;-57
2022/06/13 00:25:24;;;;;;;1.77;1.10;;;;;23.30;100913.00;;;;2076598;28;20210;-58
2022/06/13 00:26:25;;;;;;;1.30;0.97;;;;;23.30;100903.00;;;;2077727;28;20213;-57
2022/06/13 00:27:25;;;;;;;2.13;0.90;;;;;23.30;100895.00;;;;2077698;28;20217;-57
2022/06/13 00:28:26;;;;;;;1.23;1.00;;;;;23.30;100900.00;;;;2078546;28;20214;-57
2022/06/13 00:29:26;;;;;;;1.30;1.20;;;;;23.30;100908.00;;;;2078274;28;20213;-57
2022/06/13 00:30:27;;;;;;;1.47;1.07;;;;;23.30;100912.00;;;;2078373;28;20212;-58
2022/06/13 00:31:27;;;;;;;1.27;0.90;;;;;23.30;100908.00;;;;2078694;28;20216;-57
2022/06/13 00:32:27;;;;;;;1.77;1.30;;;;;23.30;100913.00;;;;2077388;28;20214;-58
2022/06/13 00:33:28;;;;;;;1.57;1.10;;;;;23.30;100902.00;;;;2078349;28;20221;-58
2022/06/13 00:34:28;;;;;;;1.40;0.83;;;;;23.40;100903.00;;;;2078475;28;20313;-58
2022/06/13 00:35:29;;;;;;;2.00;1.13;;;;;23.40;100902.00;;;;2077611;28;20224;-58
2022/06/13 00:36:29;;;;;;;1.47;1.27;;;;;23.30;100910.00;;;;2077943;28;21112;-58
2022/06/13 00:37:29;;;;;;;1.60;1.43;;;;;23.40;100908.00;;;;2077783;28;20210;-57
2022/06/13 00:38:30;;;;;;;1.30;1.20;;;;;23.40;100914.00;;;;2074629;28;20214;-56
2022/06/13 00:39:30;;;;;;;2.33;1.33;;;;;23.40;100917.00;;;;2070599;28;20221;-63
2022/06/13 00:40:31;;;;;;;1.60;1.10;;;;;23.30;100913.00;;;;2070413;28;20218;-58
2022/06/13 00:41:33;;;;;;;1.77;1.40;;;;;23.30;100910.00;;;;2078789;28;20223;-55
2022/06/13 00:42:34;;;;;;;1.33;0.80;;;;;23.30;100904.00;;;;2071960;28;20706;-54
2022/06/13 00:43:35;;;;;;;1.70;1.13;;;;;23.30;100910.00;;;;2078943;28;20301;-59
2022/06/13 00:44:36;;;;;;;2.33;1.23;;;;;23.30;100873.00;;;;2078848;28;20221;-54
2022/06/13 00:45:37;;;;;;;1.38;1.02;;;;;23.30;100907.00;;;;2070309;28;20222;-55
2022/06/13 00:46:37;;;;;;;1.80;1.13;;;;;23.30;100906.00;;;;2070404;28;20723;-62
2022/06/13 00:47:39;;;;;;;2.23;1.10;;;;;23.30;100899.00;;;;2079071;28;20641;-60
2022/06/13 00:48:39;;;;;;;1.50;1.10;;;;;23.30;100905.00;;;;2079156;28;20218;-57
2022/06/13 00:49:42;;;;;;;2.00;1.10;;;;;23.30;100891.00;;;;2078514;28;20603;-57
2022/06/13 00:50:52;;;;;;;2.08;1.10;;;;;23.30;100904.00;;;;2057050;28;20222;-56
2022/06/13 00:51:55;;;;;;;1.55;1.33;;;;;23.30;100903.00;;;;2056141;28;20211;-60
2022/06/13 00:53:06;;;;;;;1.80;1.00;;;;;23.30;100912.00;;;;2063034;28;20246;-56
2022/06/13 00:54:07;;;;;;;1.27;1.00;;;;;23.30;100896.00;;;;2064466;28;20320;-55
2022/06/13 00:55:14;;;;;;;1.60;1.00;;;;;23.30;100900.00;;;;2054781;28;20755;-62
2022/06/13 00:56:18;;;;;;;2.10;1.60;;;;;23.30;100911.00;;;;2054823;28;20212;-56
2022/06/13 00:57:21;;;;;;;2.20;1.20;;;;;23.30;100891.00;;;;2037221;28;20251;-57
2022/06/13 00:58:23;;;;;;;1.50;1.30;;;;;23.30;100890.00;;;;2039237;28;20738;-57
2022/06/13 00:59:24;;;;;;;1.98;1.52;;;;;23.40;100898.00;;;;2057315;28;20245;-60
2022/06/13 01:00:24;;;;;;;2.72;1.10;;;;;23.30;100891.00;;;;2047264;28;20693;-56
2022/06/13 01:01:25;;;;;;;2.07;1.07;;;;;23.30;100896.00;;;;2054249;28;20227;-56
2022/06/13 01:02:26;;;;;;;1.60;1.17;;;;;23.30;100892.00;;;;2062687;28;20211;-59
2022/06/13 01:03:27;;;;;;;2.10;1.20;;;;;23.30;100895.00;;;;2062334;28;20207;-57
2022/06/13 01:04:27;;;;;;;1.25;1.15;;;;;23.30;100898.00;;;;2061997;28;20306;-61
2022/06/13 01:05:29;;;;;;;1.67;1.10;;;;;23.30;100879.00;;;;2070380;28;20599;-59
2022/06/13 01:06:35;;;;;;;1.88;1.15;;;;;23.30;100890.00;;;;2062120;28;20652;-60
2022/06/13 01:07:35;;;;;;;1.38;1.00;;;;;23.30;100883.00;;;;2062148;28;20261;-57
2022/06/13 01:08:36;;;;;;;1.63;1.20;;;;;23.30;100892.00;;;;2046539;28;20263;-61
2022/06/13 01:11:18;;;;;;;1.70;1.20;;;;;23.30;100894.00;;;;2052240;28;20463;-55
2022/06/13 01:12:18;;;;;;;1.38;1.10;;;;;23.30;100891.00;;;;2063958;28;20592;-57
2022/06/13 01:13:19;;;;;;;1.53;0.97;;;;;23.30;100886.00;;;;2064070;28;20230;-58
2022/06/13 01:15:03;;;;;;;1.37;1.10;;;;;23.30;100894.00;;;;2063380;28;20826;-59
2022/06/13 01:16:06;;;;;;;3.08;1.40;;;;;23.30;100897.00;;;;2053487;28;20207;-57
2022/06/13 01:17:28;;;;;;;1.38;1.00;;;;;23.30;100896.00;;;;2067310;28;20214;-57
2022/06/13 01:18:35;;;;;;;2.45;1.35;;;;;23.30;100896.00;;;;2080177;28;20249;-58
2022/06/13 01:20:00;;;;;;;1.83;1.33;;;;;23.30;100899.00;;;;2079905;28;20226;-55
2022/06/13 01:21:10;;;;;;;1.70;1.30;;;;;23.30;100896.00;;;;2074913;28;20224;-57
2022/06/13 01:22:33;;;;;;;1.33;0.90;;;;;23.30;100893.00;;;;2063906;28;20306;-58
2022/06/13 01:24:11;;;;;;;2.75;1.30;;;;;23.30;100889.00;;;;2067514;28;20217;-55
2022/06/13 01:25:49;;;;;;;1.10;1.00;;;;;23.30;100894.00;;;;2072285;28;20230;-57
2022/06/13 01:27:08;;;;;;;1.90;1.23;;;;;23.30;100893.00;;;;2081108;28;20312;-56
2022/06/13 01:28:11;;;;;;;1.73;1.20;;;;;23.30;100890.00;;;;2080968;28;20676;-59
2022/06/13 01:29:30;;;;;;;1.40;1.08;;;;;23.30;100891.00;;;;2077531;28;20229;-58
2022/06/13 01:30:48;;;;;;;1.40;1.00;;;;;23.30;100891.00;;;;2071953;28;20654;-56
2022/06/13 01:32:04;;;;;;;2.00;1.20;;;;;23.30;100891.00;;;;2066487;28;20237;-61
2022/06/13 01:33:16;;;;;;;1.85;1.10;;;;;23.30;100882.00;;;;2072352;28;20292;-57
2022/06/13 01:34:35;;;;;;;1.83;1.10;;;;;23.30;100886.00;;;;2072399;28;20241;-61
2022/06/13 01:35:38;;;;;;;1.42;1.20;;;;;23.30;100883.00;;;;2072324;28;20638;-56
2022/06/13 01:37:06;;;;;;;1.42;1.15;;;;;23.30;100890.00;;;;2072356;28;20261;-57
2022/06/13 01:38:37;;;;;;;1.52;1.33;;;;;23.30;100887.00;;;;2058578;28;20207;-55
2022/06/13 01:39:55;;;;;;;1.88;1.13;;;;;23.30;100887.00;;;;2058883;28;20222;-59
2022/06/13 01:41:02;;;;;;;1.50;1.02;;;;;23.30;100887.00;;;;2066346;28;20302;-58
2022/06/13 01:42:10;;;;;;;1.90;1.08;;;;;23.30;100889.00;;;;2072903;28;20206;-57
2022/06/13 01:43:19;;;;;;;1.70;1.40;;;;;23.30;100895.00;;;;2072448;28;20301;-56
2022/06/13 01:44:57;;;;;;;1.60;1.20;;;;;23.30;100896.00;;;;2072465;28;20223;-61
2022/06/13 01:46:08;;;;;;;1.80;1.00;;;;;23.30;100894.00;;;;2070962;28;20642;-58
2022/06/13 01:47:36;;;;;;;2.42;1.30;;;;;23.30;100899.00;;;;2057264;28;20591;-56
2022/06/13 01:48:59;;;;;;;1.52;1.15;;;;;23.30;100903.00;;;;2072103;28;20217;-59
2022/06/13 01:50:21;;;;;;;1.55;1.45;;;;;23.30;100899.00;;;;2079511;28;20209;-57
2022/06/13 01:51:43;;;;;;;1.30;1.10;;;;;23.30;100900.00;;;;2074123;28;20304;-57
2022/06/13 01:53:25;;;;;;;2.03;1.00;;;;;23.30;100898.00;;;;2076855;28;20271;-56
2022/06/13 01:54:51;;;;;;;2.00;1.30;;;;;23.30;100910.00;;;;2073789;28;20283;-57
2022/06/13 01:56:03;;;;;;;1.95;1.10;;;;;23.30;100900.00;;;;2079710;28;20237;-56
2022/06/13 01:57:09;;;;;;;1.20;0.93;;;;;23.30;100900.00;;;;2071581;28;20238;-57
2022/06/13 01:58:23;;;;;;;2.50;1.30;;;;;23.30;100905.00;;;;2072168;28;20229;-58
2022/06/13 01:59:27;;;;;;;2.00;1.20;;;;;23.30;100903.00;;;;2063606;28;20246;-57
2022/06/13 02:00:29;;;;;;;1.65;1.30;;;;;23.30;100908.00;;;;2057188;28;20270;-63
2022/06/13 02:01:48;;;;;;;1.30;1.20;;;;;23.30;100903.00;;;;2071523;28;20222;-60
2022/06/13 02:02:58;;;;;;;2.30;1.50;;;;;23.30;100903.00;;;;2072202;28;20228;-56
2022/06/13 02:04:00;;;;;;;1.10;1.00;;;;;23.30;100903.00;;;;2063129;28;20581;-58
2022/06/13 02:05:08;;;;;;;1.35;1.10;;;;;23.20;100892.00;;;;2056400;28;20883;-59
2022/06/13 02:06:24;;;;;;;1.60;1.50;;;;;23.30;100904.00;;;;2064550;28;20583;-58
2022/06/13 02:07:27;;;;;;;1.60;1.30;;;;;23.30;100907.00;;;;2065613;28;20226;-57
2022/06/13 02:08:37;;;;;;;1.30;1.10;;;;;23.20;100904.00;;;;2055756;28;20215;-58
2022/06/13 02:09:44;;;;;;;4.00;1.45;;;;;23.30;100901.00;;;;2057555;28;20223;-60
2022/06/13 02:10:50;;;;;;;1.55;1.20;;;;;23.30;100901.00;;;;2057910;28;20710;-60
2022/06/13 02:11:52;;;;;;;1.67;1.25;;;;;23.30;100906.00;;;;2059159;28;20308;-55
2022/06/13 02:12:55;;;;;;;1.55;1.05;;;;;23.30;100900.00;;;;2064611;28;20899;-55
2022/06/13 02:14:10;;;;;;;1.85;1.35;;;;;23.30;100896.00;;;;2067148;28;20231;-59
2022/06/13 02:15:13;;;;;;;1.50;1.40;;;;;23.30;100891.00;;;;2063747;28;20219;-56
2022/06/13 02:16:18;;;;;;;1.40;1.00;;;;;23.30;100896.00;;;;2064413;28;20207;-61
2022/06/13 02:17:21;;;;;;;2.03;1.52;;;;;23.30;100892.00;;;;2056541;28;20243;-56
2022/06/13 02:18:30;;;;;;;1.45;1.10;;;;;23.30;100897.00;;;;2064582;28;20222;-57
2022/06/13 02:19:35;;;;;;;1.33;1.20;;;;;23.30;100899.00;;;;2064878;28;20484;-57
2022/06/13 02:20:39;;;;;;;1.90;1.30;;;;;23.20;100883.00;;;;2064285;28;20293;-55
2022/06/13 02:21:45;;;;;;;1.70;1.10;;;;;23.20;100896.00;;;;2055920;28;20295;-58
2022/06/13 02:22:49;;;;;;;1.65;1.20;;;;;23.20;100914.00;;;;2056627;28;20284;-61
2022/06/13 02:23:53;;;;;;;1.98;1.13;;;;;23.30;100894.00;;;;2050071;28;20231;-60
2022/06/13 02:25:04;;;;;;;1.48;1.20;;;;;23.20;100900.00;;;;2064615;28;20222;-59
2022/06/13 02:26:10;;;;;;;1.70;1.40;;;;;23.20;100908.00;;;;2066418;28;20269;-57
2022/06/13 02:27:11;;;;;;;1.60;1.50;;;;;23.30;100902.00;;;;2073003;28;20214;-57
2022/06/13 02:28:18;;;;;;;1.50;1.10;;;;;23.20;100903.00;;;;2072478;28;20211;-56
2022/06/13 02:29:29;;;;;;;2.85;1.17;;;;;23.30;100896.00;;;;2063834;28;20214;-59
2022/06/13 02:30:33;;;;;;;1.23;0.98;;;;;23.30;100901.00;;;;2065862;28;20219;-57
2022/06/13 02:31:40;;;;;;;1.95;1.13;;;;;23.30;100897.00;;;;2070502;28;20210;-58
2022/06/13 02:32:47;;;;;;;1.30;1.10;;;;;23.20;100898.00;;;;2072893;28;20202;-59
2022/06/13 02:33:54;;;;;;;1.63;1.23;;;;;23.30;100896.00;;;;2071020;28;20214;-58
2022/06/13 02:35:01;;;;;;;2.30;1.40;;;;;23.20;100900.00;;;;2063728;28;20222;-57
2022/06/13 02:36:06;;;;;;;1.73;1.40;;;;;23.30;100899.00;;;;2050156;28;20216;-57
2022/06/13 02:37:53;;;;;;;1.60;1.20;;;;;23.20;100906.00;;;;2055558;28;20222;-56
2022/06/13 02:38:59;;;;;;;2.22;1.50;;;;;23.20;100904.00;;;;2042125;28;20216;-58
2022/06/13 02:40:15;;;;;;;1.50;0.95;;;;;23.20;100903.00;;;;2054572;28;20696;-56
2022/06/13 02:41:20;;;;;;;1.90;1.40;;;;;23.20;100905.00;;;;2051578;28;20217;-58
2022/06/13 02:42:26;;;;;;;1.70;1.15;;;;;23.20;100898.00;;;;2047340;28;20275;-57
2022/06/13 02:43:40;;;;;;;2.58;1.60;;;;;23.20;100887.00;;;;2061949;28;20398;-56
2022/06/13 02:44:44;;;;;;;2.03;1.40;;;;;23.00;100876.00;;;;2062034;28;20448;-56
2022/06/13 02:45:59;;;;;;;1.52;1.05;;;;;23.20;100884.00;;;;2053686;28;20226;-55
2022/06/13 02:47:28;;;;;;;1.70;1.30;;;;;23.20;100887.00;;;;2062819;28;20226;-55
2022/06/13 02:48:39;;;;;;;2.63;1.45;;;;;23.20;100882.00;;;;2064239;28;20242;-57
2022/06/13 02:49:42;;;;;;;3.08;1.45;;;;;23.20;100885.00;;;;2059146;28;20226;-57
2022/06/13 02:50:57;;;;;;;2.10;1.30;;;;;23.30;100882.00;;;;2066356;28;20716;-57
2022/06/13 02:52:18;;;;;;;2.38;1.25;;;;;23.20;100875.00;;;;2064188;28;20252;-56
2022/06/13 02:53:23;;;;;;;1.50;1.20;;;;;23.20;100881.00;;;;2074019;28;20217;-56
2022/06/13 02:54:58;;;;;;;2.15;1.10;;;;;23.20;100898.00;;;;2062235;28;20225;-56
2022/06/13 02:56:17;;;;;;;1.77;1.35;;;;;23.20;100874.00;;;;2067060;28;20244;-56
2022/06/13 02:57:33;;;;;;;1.92;1.30;;;;;23.20;100883.00;;;;2077826;28;21058;-57
2022/06/13 02:58:52;;;;;;;1.40;1.30;;;;;23.20;100891.00;;;;2072684;28;20260;-58
2022/06/13 03:00:10;;;;;;;1.33;1.10;;;;;23.20;100885.00;;;;2077747;28;20236;-57
2022/06/13 03:01:16;;;;;;;1.65;1.15;;;;;23.20;100872.00;;;;2078453;28;20792;-57
2022/06/13 03:02:20;;;;;;;1.55;1.25;;;;;23.20;100884.00;;;;2069931;28;20214;-57
2022/06/13 03:03:20;;;;;;;1.67;1.38;;;;;23.20;100885.00;;;;2069576;28;20297;-57
2022/06/13 03:04:32;;;;;;;1.47;1.30;;;;;23.20;100880.00;;;;2077919;28;20218;-57
2022/06/13 03:05:58;;;;;;;1.67;1.40;;;;;23.20;100897.00;;;;2068817;28;20241;-55
2022/06/13 03:07:04;;;;;;;2.75;1.45;;;;;23.20;100888.00;;;;2073169;28;20220;-55
2022/06/13 03:08:22;;;;;;;1.70;1.15;;;;;23.20;100885.00;;;;2077868;28;20218;-57
2022/06/13 03:09:41;;;;;;;1.67;1.15;;;;;23.20;100885.00;;;;2071933;28;20745;-57
2022/06/13 03:10:46;;;;;;;1.58;1.48;;;;;23.20;100888.00;;;;2060624;28;20302;-57
2022/06/13 03:11:55;;;;;;;1.40;1.30;;;;;23.20;100886.00;;;;2061946;28;20627;-58
2022/06/13 03:13:05;;;;;;;1.90;1.35;;;;;23.20;100884.00;;;;2069580;28;20214;-57
2022/06/13 03:14:38;;;;;;;3.13;1.48;;;;;23.20;100881.00;;;;2065485;28;20215;-57
2022/06/13 03:15:48;;;;;;;1.65;1.25;;;;;23.20;100881.00;;;;2065312;28;20225;-57
2022/06/13 03:17:07;;;;;;;1.48;1.25;;;;;23.20;100877.00;;;;2063643;28;20214;-56
2022/06/13 03:18:10;;;;;;;1.40;1.30;;;;;23.20;100876.00;;;;2064361;28;20209;-54
2022/06/13 03:19:15;;;;;;;1.67;0.90;;;;;23.20;100869.00;;;;2053956;28;20772;-56
2022/06/13 03:20:21;;;;;;;1.55;1.10;;;;;23.20;100885.00;;;;2047981;28;20223;-57
2022/06/13 03:21:27;;;;;;;1.60;1.30;;;;;23.20;100890.00;;;;2070152;28;20222;-57
2022/06/13 03:22:45;;;;;;;2.03;1.25;;;;;23.20;100887.00;;;;2062263;28;20222;-54
2022/06/13 03:23:53;;;;;;;1.98;1.40;;;;;23.20;100890.00;;;;2064697;28;20218;-56
2022/06/13 03:24:59;;;;;;;1.90;1.40;;;;;23.20;100907.00;;;;2061656;28;20226;-55
2022/06/13 03:26:02;;;;;;;2.15;1.58;;;;;23.20;100901.00;;;;2046664;28;20216;-57
2022/06/13 03:27:06;;;;;;;2.10;1.65;;;;;23.20;100899.00;;;;2054701;28;20215;-58
2022/06/13 03:28:12;;;;;;;2.38;1.50;;;;;23.20;100893.00;;;;2047151;28;20220;-57
2022/06/13 03:29:25;;;;;;;1.35;1.25;;;;;23.20;100895.00;;;;2049329;28;20220;-58
2022/06/13 03:30:27;;;;;;;1.40;1.15;;;;;23.20;100900.00;;;;2054918;28;20241;-57
2022/06/13 03:31:31;;;;;;;1.63;1.20;;;;;23.20;100898.00;;;;2054519;28;20219;-57
2022/06/13 03:32:34;;;;;;;1.40;1.25;;;;;23.20;100896.00;;;;2046885;28;20216;-56
2022/06/13 03:33:41;;;;;;;2.80;1.40;;;;;23.20;100893.00;;;;2061290;28;20249;-57
2022/06/13 03:34:43;;;;;;;2.30;1.30;;;;;23.20;100891.00;;;;2054605;28;20219;-59
2022/06/13 03:35:45;;;;;;;2.17;1.38;;;;;23.20;100896.00;;;;2044541;28;20224;-57
2022/06/13 03:36:55;;;;;;;1.65;1.40;;;;;23.20;100890.00;;;;2043564;28;20208;-57
2022/06/13 03:37:55;;;;;;;2.13;1.40;;;;;23.20;100885.00;;;;2054336;28;20771;-56
2022/06/13 03:39:17;;;;;;;1.93;1.40;;;;;23.20;100887.00;;;;2048817;28;20214;-57
2022/06/13 03:40:20;;;;;;;1.60;1.00;;;;;23.20;100882.00;;;;2062951;28;20214;-55
2022/06/13 03:41:21;;;;;;;1.30;1.00;;;;;23.20;100887.00;;;;2065360;28;20296;-57
2022/06/13 03:42:25;;;;;;;1.30;1.10;;;;;23.20;100885.00;;;;2062400;28;20301;-58
2022/06/13 03:43:33;;;;;;;1.25;1.15;;;;;23.20;100878.00;;;;2070109;28;20488;-57
2022/06/13 03:44:38;;;;;;;2.05;1.10;;;;;23.20;100873.00;;;;2062325;28;20281;-58
2022/06/13 03:46:02;;;;;;;2.78;1.30;;;;;23.20;100881.00;;;;2054369;28;20218;-56
2022/06/13 03:47:25;;;;;;;1.80;1.40;;;;;23.20;100878.00;;;;2051178;28;20234;-56
2022/06/13 03:48:31;;;;;;;3.13;1.70;;;;;23.20;100881.00;;;;2078553;28;20214;-57
2022/06/13 03:50:16;;;;;;;2.47;1.45;;;;;23.20;100882.00;;;;2078195;28;20268;-57
2022/06/13 03:51:32;;;;;;;2.08;1.30;;;;;23.20;100884.00;;;;2060048;28;20716;-57
2022/06/13 03:52:32;;;;;;;1.20;1.10;;;;;23.20;100889.00;;;;2077974;28;20295;-56
2022/06/13 03:53:42;;;;;;;2.27;1.30;;;;;23.20;100886.00;;;;2062833;28;20226;-57
2022/06/13 03:54:52;;;;;;;2.05;1.60;;;;;23.20;100895.00;;;;2071495;28;20217;-61
2022/06/13 03:55:54;;;;;;;1.77;1.23;;;;;23.20;100889.00;;;;2070914;28;20306;-57
2022/06/13 03:57:09;;;;;;;1.70;1.42;;;;;23.20;100882.00;;;;2078230;28;20217;-57
2022/06/13 03:58:12;;;;;;;1.70;1.23;;;;;23.20;100890.00;;;;2071167;28;20563;-57
2022/06/13 03:59:18;;;;;;;2.08;1.50;;;;;23.20;100881.00;;;;2071239;28;20224;-58
2022/06/13 04:00:25;;;;;;;1.67;1.35;;;;;23.20;100881.00;;;;2070371;28;20272;-61
2022/06/13 04:01:27;;;;;;;1.33;1.10;;;;;23.20;100884.00;;;;2067810;28;20742;-57
2022/06/13 04:02:29;;;;;;;1.60;1.45;;;;;23.20;100885.00;;;;2062279;28;20214;-62
2022/06/13 04:03:29;;;;;;;2.30;1.40;;;;;23.20;100881.00;;;;2055098;28;20240;-56
2022/06/13 04:04:38;;;;;;;1.90;1.27;;;;;23.20;100884.00;;;;2070620;28;20222;-60
2022/06/13 04:05:42;;;;;;;1.10;1.00;;;;;23.20;100878.00;;;;2062089;28;20219;-55
2022/06/13 04:06:43;;;;;;;1.40;1.10;;;;;23.20;100885.00;;;;2055095;28;20215;-54
2022/06/13 04:07:43;;;;;;;1.90;1.50;;;;;23.20;100884.00;;;;2074417;28;20236;-57
2022/06/13 04:08:44;;;;;;;1.73;1.33;;;;;23.20;100888.00;;;;2070797;28;20288;-55
2022/06/13 04:09:47;;;;;;;1.97;1.40;;;;;23.20;100882.00;;;;2062344;28;20218;-55
2022/06/13 04:10:59;;;;;;;2.42;1.30;;;;;23.20;100880.00;;;;2070715;28;20256;-56
2022/06/13 04:12:23;;;;;;;1.60;1.40;;;;;23.20;100887.00;;;;2063761;28;20218;-57
2022/06/13 04:13:53;;;;;;;2.10;1.40;;;;;23.20;100886.00;;;;2066226;28;20293;-58
2022/06/13 04:15:21;;;;;;;2.30;1.50;;;;;23.20;100889.00;;;;2053603;28;20247;-55
2022/06/13 04:16:36;;;;;;;1.60;1.20;;;;;23.20;100887.00;;;;2067884;28;20219;-55
2022/06/13 04:17:49;;;;;;;1.50;1.30;;;;;23.20;100888.00;;;;2079829;28;20296;-55
2022/06/13 04:18:56;;;;;;;1.42;1.17;;;;;23.20;100889.00;;;;2076983;28;20318;-56
2022/06/13 04:19:59;;;;;;;1.20;1.10;;;;;23.20;100884.00;;;;2071208;28;20210;-56
2022/06/13 04:21:15;;;;;;;1.27;1.10;;;;;23.20;100874.00;;;;2076931;28;20208;-55
2022/06/13 04:22:42;;;;;;;1.55;1.45;;;;;23.20;100882.00;;;;2063839;28;20639;-56
2022/06/13 04:23:45;;;;;;;2.35;1.45;;;;;23.20;100887.00;;;;2074871;28;20292;-58
2022/06/13 04:24:57;;;;;;;1.90;1.20;;;;;23.10;100880.00;;;;2079647;28;20634;-54
2022/06/13 04:26:03;;;;;;;2.33;1.35;;;;;23.20;100871.00;;;;2077916;28;20235;-57
2022/06/13 04:27:15;;;;;;;2.85;1.35;;;;;23.20;100873.00;;;;2071285;28;20260;-58
2022/06/13 04:28:20;;;;;;;1.48;1.27;;;;;23.20;100873.00;;;;2070856;28;20206;-55
2022/06/13 04:29:29;;;;;;;1.30;1.20;;;;;23.20;100872.00;;;;2062594;28;20741;-59
2022/06/13 04:30:30;;;;;;;1.83;1.48;;;;;23.20;100867.00;;;;2049239;28;20294;-55
2022/06/13 04:31:31;;;;;;;1.63;1.35;;;;;23.10;100876.00;;;;2061704;28;20253;-58
2022/06/13 04:32:35;;;;;;;1.67;1.37;;;;;23.20;100875.00;;;;2054904;28;20697;-57
2022/06/13 04:33:39;;;;;;;1.65;1.40;;;;;23.20;100874.00;;;;2055318;28;20470;-56
2022/06/13 04:34:46;;;;;;;2.08;1.40;;;;;23.20;100881.00;;;;2062378;28;20229;-58
2022/06/13 04:35:46;;;;;;;2.20;1.42;;;;;23.20;100884.00;;;;2063295;28;20211;-55
2022/06/13 04:36:47;;;;;;;1.70;1.50;;;;;23.20;100880.00;;;;2062091;28;20222;-58
2022/06/13 04:37:47;;;;;;;2.00;1.40;;;;;23.20;100856.00;;;;2062769;28;20222;-58
2022/06/13 04:38:49;;;;;;;1.97;1.47;;;;;23.20;100872.00;;;;2054495;28;20227;-58
2022/06/13 04:39:50;;;;;;;1.58;1.02;;;;;23.20;100879.00;;;;2062681;28;20238;-58
2022/06/13 04:40:57;;;;;;;3.15;1.50;;;;;23.20;100877.00;;;;2065253;28;20711;-61
2022/06/13 04:41:58;;;;;;;1.58;1.48;;;;;23.20;100883.00;;;;2063737;28;20214;-62
2022/06/13 04:42:58;;;;;;;1.67;1.27;;;;;23.20;100879.00;;;;2064011;28;20225;-55
2022/06/13 04:44:00;;;;;;;2.10;1.57;;;;;23.20;100877.00;;;;2061959;28;20731;-55
2022/06/13 04:45:05;;;;;;;1.67;1.50;;;;;23.20;100878.00;;;;2062864;28;20687;-55
2022/06/13 04:46:18;;;;;;;2.08;1.50;;;;;23.20;100873.00;;;;2078484;28;20710;-58
2022/06/13 04:47:18;;;;;;;1.80;1.23;;;;;23.20;100881.00;;;;2070593;28;20237;-56
2022/06/13 04:48:19;;;;;;;1.70;1.20;;;;;23.20;100882.00;;;;2071755;28;20222;-58
2022/06/13 04:49:24;;;;;;;1.27;1.10;;;;;23.20;100885.00;;;;2077165;28;20671;-55
2022/06/13 04:50:36;;;;;;;1.50;1.30;;;;;23.20;100887.00;;;;2078268;28;20255;-56
2022/06/13 04:51:40;;;;;;;2.10;1.20;;;;;23.20;100884.00;;;;2053789;28;20215;-56
2022/06/13 04:52:41;;;;;;;1.52;1.20;;;;;23.10;100886.00;;;;2046527;28;20251;-54
2022/06/13 04:54:02;;;;;;;1.77;1.30;;;;;23.10;100886.00;;;;2050682;28;20251;-55
2022/06/13 04:55:17;;;;;;;1.65;1.40;;;;;23.20;100895.00;;;;2064578;28;20758;-54
2022/06/13 04:56:21;;;;;;;1.40;1.30;;;;;23.10;100899.00;;;;2050919;28;20317;-62
2022/06/13 04:57:22;;;;;;;1.42;1.33;;;;;23.10;100903.00;;;;2046776;28;20255;-60
2022/06/13 04:58:31;;;;;;;2.20;1.20;;;;;23.20;100897.00;;;;2052901;28;20219;-59
2022/06/13 04:59:31;;;;;;;1.63;1.40;;;;;23.20;100907.00;;;;2070765;28;20670;-56
2022/06/13 05:00:32;;;;;;;2.10;1.40;;;;;23.20;100919.00;;;;2069125;28;20249;-57
2022/06/13 05:01:50;;;;;;;1.97;1.30;;;;;23.20;100907.00;;;;2069149;28;20218;-55
2022/06/13 05:02:52;;;;;;;2.67;1.35;;;;;23.20;100909.00;;;;2077140;28;20332;-57
2022/06/13 05:03:53;;;;;;;2.42;1.33;;;;;23.20;100905.00;;;;2061159;28;20238;-56
2022/06/13 05:04:54;;;;;;;1.52;1.25;;;;;23.20;100904.00;;;;2068306;28;20225;-60
2022/06/13 05:05:54;;;;;;;1.60;1.23;;;;;23.20;100911.00;;;;2068045;28;20218;-59
2022/06/13 05:07:16;;;;;;;1.90;1.00;;;;;23.10;100910.00;;;;2068331;28;20217;-57
2022/06/13 05:08:31;;;;;;;1.48;1.30;;;;;23.20;100913.00;;;;2072119;28;20245;-56
2022/06/13 05:09:33;;;;;;;1.42;1.30;;;;;23.20;100915.00;;;;2070611;28;20279;-57
2022/06/13 05:10:34;;;;;;;1.50;1.33;;;;;23.10;100910.00;;;;2061179;28;20214;-57
2022/06/13 05:12:12;;;;;;;1.70;1.13;;;;;23.10;100909.00;;;;2044629;28;20255;-58
2022/06/13 05:13:12;;;;;;;1.70;1.20;;;;;23.10;100911.00;;;;2066025;28;20259;-57
2022/06/13 05:14:21;;;;;;;1.40;1.30;;;;;23.10;100904.00;;;;2069435;28;20392;-56
2022/06/13 05:15:25;;;;;;;1.83;1.58;;;;;23.10;100914.00;;;;2060808;28;20271;-58
2022/06/13 05:17:07;;;;;;;1.60;1.17;;;;;23.10;100919.00;;;;2061252;28;20246;-58
2022/06/13 05:18:08;;;;;;;1.80;1.30;;;;;23.10;100931.00;;;;2069652;28;20241;-56
2022/06/13 05:19:31;;;;;;;1.53;1.30;;;;;23.10;100930.00;;;;2069953;28;20270;-55
2022/06/13 05:20:59;;;;;;;1.90;1.58;;;;;23.20;100938.00;;;;2070000;28;20587;-58
2022/06/13 05:22:06;;;;;;;2.45;1.48;;;;;23.10;100936.00;;;;2068879;28;20287;-56
2022/06/13 05:23:24;;;;;;;1.90;1.40;;;;;23.20;100939.00;;;;2062121;28;20215;-58
2022/06/13 05:25:12;;;;;;;1.63;1.30;;;;;23.20;100933.00;;;;2069340;28;20225;-58
2022/06/13 05:26:13;;;;;;;1.95;1.55;;;;;23.10;100938.00;;;;2050678;28;20247;-57
2022/06/13 05:27:13;;;;;;;2.00;1.50;;;;;23.20;100948.00;;;;2065608;28;20217;-58
2022/06/13 05:28:17;;;;;;;1.43;1.20;;;;;23.20;100938.00;;;;2068793;28;20582;-55
2022/06/13 05:29:17;;;;;;;1.75;1.60;;;;;23.10;100949.00;;;;2060474;28;20309;-58
2022/06/13 05:30:18;;;;;;;1.77;1.30;;;;;23.10;100943.00;;;;2052425;28;20814;-55
2022/06/13 05:31:19;;;;;;;1.90;1.40;;;;;23.10;100941.00;;;;2052300;28;20712;-57
2022/06/13 05:32:20;;;;;;;1.60;1.23;;;;;23.10;100933.00;;;;2059825;28;21131;-58
2022/06/13 05:33:22;;;;;;;1.40;1.10;;;;;23.10;100933.00;;;;2060895;28;20237;-57
2022/06/13 05:34:43;;;;;;;1.50;1.40;;;;;23.10;100937.00;;;;2053238;28;20936;-57
2022/06/13 05:35:43;;;;;;;1.50;1.30;;;;;23.10;100936.00;;;;2066251;28;20213;-57
2022/06/13 05:36:43;;;;;;;1.93;1.40;;;;;23.10;100937.00;;;;2069232;28;20211;-57
2022/06/13 05:37:44;;;;;;;2.37;1.50;;;;;23.10;100935.00;;;;2068830;28;20206;-57
2022/06/13 05:39:00;;;;;;;2.43;1.40;;;;;23.20;100933.00;;;;2062077;28;20214;-58